Time;durP1;ratioP1;P1;durP2;ratioP2;P2;SDS_P1;SDS_P2;PMS_P1;PMS_P2;Temp;Humidity;BMP_temperature;BMP_pressure;BME280_temperature;BME280_humidity;BME280_pressure;Samples;Min_cycle;Max_cycle;Signal;HPM_P1;HPM_P2
2021/08/18 00:00:04;;;;;;;34.13;18.80;;;;;;;;;;5103968;28;20207;-84
2021/08/18 00:02:33;;;;;;;30.40;17.85;;;;;;;;;;5100668;28;20052;-84
2021/08/18 00:05:01;;;;;;;29.88;18.38;;;;;;;;;;5109622;28;20035;-84
2021/08/18 00:07:32;;;;;;;33.67;18.90;;;;;;;;;;5115750;28;20087;-85
2021/08/18 00:09:59;;;;;;;29.83;17.52;;;;;;;;;;5102822;28;20273;-84
2021/08/18 00:12:26;;;;;;;30.15;17.73;;;;;;;;;;5103467;28;20062;-84
2021/08/18 00:14:56;;;;;;;34.15;18.83;;;;;;;;;;5108011;28;20099;-84
2021/08/18 00:17:22;;;;;;;28.85;18.67;;;;;;;;;;5114000;28;20036;-84
2021/08/18 00:19:49;;;;;;;35.58;19.75;;;;;;;;;;5113513;28;20088;-84
2021/08/18 00:22:19;;;;;;;33.55;19.30;;;;;;;;;;5111900;28;20048;-85
2021/08/18 00:24:45;;;;;;;36.47;19.33;;;;;;;;;;5113385;28;20044;-85
2021/08/18 00:27:12;;;;;;;30.13;17.30;;;;;;;;;;5110953;28;20432;-85
2021/08/18 00:29:51;;;;;;;32.33;18.85;;;;;;;;;;5103096;28;20059;-85
2021/08/18 00:32:18;;;;;;;31.80;19.77;;;;;;;;;;5102462;28;20048;-85
2021/08/18 00:34:47;;;;;;;33.38;19.35;;;;;;;;;;5101891;28;20048;-85
2021/08/18 00:37:13;;;;;;;37.55;19.55;;;;;;;;;;5101549;28;20131;-83
2021/08/18 00:39:40;;;;;;;37.90;20.23;;;;;;;;;;5099667;28;20056;-83
2021/08/18 00:42:06;;;;;;;34.92;20.20;;;;;;;;;;5099589;28;20475;-83
2021/08/18 00:44:36;;;;;;;38.92;20.33;;;;;;;;;;5096461;28;20048;-83
2021/08/18 00:47:04;;;;;;;31.77;19.33;;;;;;;;;;5099448;28;20409;-84
2021/08/18 00:49:31;;;;;;;33.42;18.75;;;;;;;;;;5101762;28;20048;-84
2021/08/18 00:51:59;;;;;;;33.90;18.35;;;;;;;;;;5099726;28;20073;-86
2021/08/18 00:54:39;;;;;;;31.85;18.52;;;;;;;;;;5100320;28;20048;-84
2021/08/18 00:57:06;;;;;;;32.92;18.80;;;;;;;;;;5099341;28;20242;-83
2021/08/18 00:59:36;;;;;;;38.08;19.90;;;;;;;;;;5103290;28;20078;-84
2021/08/18 01:02:03;;;;;;;37.20;21.23;;;;;;;;;;5099595;28;20048;-84
2021/08/18 01:04:30;;;;;;;30.00;18.23;;;;;;;;;;5100146;28;20360;-83
2021/08/18 01:06:58;;;;;;;37.70;19.85;;;;;;;;;;5103648;28;20056;-84
2021/08/18 01:09:25;;;;;;;38.00;20.98;;;;;;;;;;5108362;28;20044;-84
2021/08/18 01:11:52;;;;;;;34.42;19.15;;;;;;;;;;5106226;28;20486;-84
2021/08/18 01:14:19;;;;;;;36.35;20.10;;;;;;;;;;5102364;28;20048;-84
2021/08/18 01:16:49;;;;;;;37.47;20.80;;;;;;;;;;5110229;28;20036;-83
2021/08/18 01:19:17;;;;;;;39.58;20.38;;;;;;;;;;5114209;28;20461;-83
2021/08/18 01:21:47;;;;;;;42.50;20.70;;;;;;;;;;5104797;28;20048;-84
2021/08/18 01:24:15;;;;;;;39.13;20.33;;;;;;;;;;5100073;28;20051;-83
2021/08/18 01:26:42;;;;;;;45.72;22.88;;;;;;;;;;5134190;27;20109;-83
2021/08/18 01:29:08;;;;;;;51.05;24.23;;;;;;;;;;5099995;28;20052;-83
2021/08/18 01:31:40;;;;;;;46.97;22.63;;;;;;;;;;5099363;28;20117;-83
2021/08/18 01:34:07;;;;;;;44.67;22.77;;;;;;;;;;5098624;28;20044;-83
2021/08/18 01:36:33;;;;;;;43.60;22.58;;;;;;;;;;5099642;28;20051;-83
2021/08/18 01:39:12;;;;;;;45.17;23.15;;;;;;;;;;5100308;28;20060;-83
2021/08/18 01:41:39;;;;;;;49.00;22.58;;;;;;;;;;5099627;28;20052;-83
2021/08/18 01:44:05;;;;;;;42.83;23.45;;;;;;;;;;5099175;28;20374;-84
2021/08/18 01:46:32;;;;;;;44.58;22.50;;;;;;;;;;5100305;28;20415;-83
2021/08/18 01:48:59;;;;;;;39.78;22.50;;;;;;;;;;5099099;28;20051;-83
2021/08/18 01:51:26;;;;;;;43.10;21.90;;;;;;;;;;5100234;28;20288;-83
2021/08/18 01:53:56;;;;;;;40.10;20.75;;;;;;;;;;5100766;28;20087;-83
2021/08/18 01:56:22;;;;;;;40.30;20.77;;;;;;;;;;5099567;28;20048;-83
2021/08/18 01:58:49;;;;;;;36.72;21.35;;;;;;;;;;5098789;28;20052;-83
2021/08/18 02:01:16;;;;;;;37.60;21.55;;;;;;;;;;5097846;28;20054;-83
2021/08/18 02:03:43;;;;;;;37.05;21.33;;;;;;;;;;5098540;28;20245;-83
2021/08/18 02:06:11;;;;;;;38.28;20.83;;;;;;;;;;5098246;28;20056;-83
2021/08/18 02:08:38;;;;;;;37.45;20.75;;;;;;;;;;5097099;28;20095;-83
2021/08/18 02:11:05;;;;;;;35.55;20.80;;;;;;;;;;5098272;28;20054;-83
2021/08/18 02:13:32;;;;;;;40.65;21.20;;;;;;;;;;5098074;28;20040;-83
2021/08/18 02:15:59;;;;;;;36.42;20.08;;;;;;;;;;5097468;28;20094;-82
2021/08/18 02:18:27;;;;;;;40.08;20.45;;;;;;;;;;5098198;28;20529;-83
2021/08/18 02:20:53;;;;;;;33.65;19.17;;;;;;;;;;5098889;28;20060;-82
2021/08/18 02:23:20;;;;;;;36.03;19.42;;;;;;;;;;5098829;28;20048;-83
2021/08/18 02:25:47;;;;;;;33.08;18.40;;;;;;;;;;5098923;28;20052;-84
2021/08/18 02:28:14;;;;;;;36.10;19.65;;;;;;;;;;5098790;28;20052;-83
2021/08/18 02:30:43;;;;;;;33.25;19.35;;;;;;;;;;5098103;28;20104;-83
2021/08/18 02:33:10;;;;;;;33.00;17.98;;;;;;;;;;5107674;28;20048;-83
2021/08/18 02:35:37;;;;;;;37.50;19.20;;;;;;;;;;5114447;28;20056;-82
2021/08/18 02:38:04;;;;;;;35.60;18.92;;;;;;;;;;5106376;28;20055;-83
2021/08/18 02:40:31;;;;;;;37.42;19.05;;;;;;;;;;5099645;28;20044;-83
2021/08/18 02:42:58;;;;;;;34.20;18.00;;;;;;;;;;5097801;28;20056;-83
2021/08/18 02:45:25;;;;;;;33.75;17.90;;;;;;;;;;5097331;28;20071;-83
2021/08/18 02:48:02;;;;;;;43.00;20.02;;;;;;;;;;5099412;28;20078;-83
2021/08/18 02:50:29;;;;;;;34.42;19.23;;;;;;;;;;5112992;28;20111;-84
2021/08/18 02:52:56;;;;;;;38.13;19.15;;;;;;;;;;5113573;28;20048;-83
2021/08/18 02:55:28;;;;;;;33.97;19.08;;;;;;;;;;5097364;28;20048;-83
2021/08/18 02:57:55;;;;;;;36.22;19.52;;;;;;;;;;5097823;28;20048;-83
2021/08/18 03:00:22;;;;;;;37.42;19.65;;;;;;;;;;5097011;28;20060;-84
2021/08/18 03:02:49;;;;;;;37.58;20.35;;;;;;;;;;5097893;28;20044;-84
2021/08/18 03:05:16;;;;;;;37.45;19.98;;;;;;;;;;5094047;28;20051;-83
2021/08/18 03:07:43;;;;;;;39.13;20.50;;;;;;;;;;5093816;28;20044;-83
2021/08/18 03:10:13;;;;;;;40.33;21.02;;;;;;;;;;5115235;28;20192;-83
2021/08/18 03:12:39;;;;;;;38.33;19.45;;;;;;;;;;5117262;28;20045;-82
2021/08/18 03:15:07;;;;;;;37.28;18.90;;;;;;;;;;5088358;28;20040;-84
2021/08/18 03:17:33;;;;;;;35.55;19.15;;;;;;;;;;5098003;28;20079;-83
2021/08/18 03:20:00;;;;;;;38.55;19.83;;;;;;;;;;5084671;28;20505;-83
2021/08/18 03:22:27;;;;;;;40.17;21.10;;;;;;;;;;5082919;28;20424;-82
2021/08/18 03:24:54;;;;;;;37.20;19.73;;;;;;;;;;5081989;28;20139;-83
2021/08/18 03:27:20;;;;;;;34.35;19.45;;;;;;;;;;5080288;28;20053;-82
2021/08/18 03:29:47;;;;;;;40.72;19.90;;;;;;;;;;5087627;28;20489;-83
2021/08/18 03:32:14;;;;;;;41.10;19.75;;;;;;;;;;5100865;28;20335;-83
2021/08/18 03:34:41;;;;;;;35.25;18.88;;;;;;;;;;5134673;27;20048;-82
2021/08/18 03:37:07;;;;;;;34.38;18.15;;;;;;;;;;5101951;28;20072;-82
2021/08/18 03:39:34;;;;;;;43.45;18.60;;;;;;;;;;5100796;28;20044;-82
2021/08/18 03:42:01;;;;;;;33.28;19.17;;;;;;;;;;5099009;28;20352;-83
2021/08/18 03:44:27;;;;;;;36.67;18.33;;;;;;;;;;5099749;28;20063;-83
2021/08/18 03:46:55;;;;;;;68.82;20.52;;;;;;;;;;5102459;28;20304;-83
2021/08/18 03:49:22;;;;;;;124.15;20.55;;;;;;;;;;5100547;28;20044;-82
2021/08/18 03:51:50;;;;;;;65.82;19.02;;;;;;;;;;5098344;28;20044;-82
2021/08/18 03:54:17;;;;;;;34.50;16.23;;;;;;;;;;5099920;28;20051;-83
2021/08/18 03:56:44;;;;;;;29.48;16.80;;;;;;;;;;5113461;28;20042;-82
2021/08/18 03:59:14;;;;;;;29.75;16.52;;;;;;;;;;5116753;28;20036;-83
2021/08/18 04:01:40;;;;;;;33.10;16.15;;;;;;;;;;5106071;28;20424;-82
2021/08/18 04:04:07;;;;;;;26.10;14.43;;;;;;;;;;5098666;28;20443;-82
2021/08/18 04:06:34;;;;;;;30.35;15.40;;;;;;;;;;5098689;28;20463;-83
2021/08/18 04:09:01;;;;;;;25.88;15.57;;;;;;;;;;5101522;28;20047;-81
2021/08/18 04:11:27;;;;;;;31.63;16.77;;;;;;;;;;5101253;28;20048;-82
2021/08/18 04:13:54;;;;;;;31.23;16.13;;;;;;;;;;5099412;28;20147;-81
2021/08/18 04:16:21;;;;;;;32.33;15.75;;;;;;;;;;5101677;28;20075;-83
2021/08/18 04:18:48;;;;;;;25.38;15.05;;;;;;;;;;5100732;28;20377;-81
2021/08/18 04:21:18;;;;;;;26.30;14.57;;;;;;;;;;5100283;28;20071;-82
2021/08/18 04:23:45;;;;;;;25.63;14.73;;;;;;;;;;5097693;28;20081;-83
2021/08/18 04:26:21;;;;;;;28.95;15.82;;;;;;;;;;5098930;28;20055;-81
2021/08/18 04:28:48;;;;;;;28.90;14.98;;;;;;;;;;5098459;28;20111;-81
2021/08/18 04:31:14;;;;;;;26.20;13.90;;;;;;;;;;5098680;28;20131;-83
2021/08/18 04:33:44;;;;;;;29.73;14.13;;;;;;;;;;5097312;28;20050;-83
2021/08/18 04:36:11;;;;;;;29.45;14.77;;;;;;;;;;5097401;28;20048;-83
2021/08/18 04:38:38;;;;;;;24.67;13.05;;;;;;;;;;5104751;28;20058;-82
2021/08/18 04:41:04;;;;;;;26.92;13.18;;;;;;;;;;5099004;28;20048;-82
2021/08/18 04:43:31;;;;;;;21.70;12.85;;;;;;;;;;5096875;28;20450;-81
2021/08/18 04:45:57;;;;;;;29.35;12.82;;;;;;;;;;5095242;28;20396;-81
2021/08/18 04:48:26;;;;;;;24.50;13.18;;;;;;;;;;5095240;28;20056;-81
2021/08/18 04:50:56;;;;;;;26.42;12.93;;;;;;;;;;5097102;28;20052;-83
2021/08/18 04:53:23;;;;;;;28.85;13.65;;;;;;;;;;5106200;28;20108;-82
2021/08/18 04:55:49;;;;;;;20.35;12.40;;;;;;;;;;5104782;28;20089;-82
2021/08/18 04:58:16;;;;;;;23.17;12.00;;;;;;;;;;5097196;28;20428;-82
2021/08/18 05:00:43;;;;;;;24.73;12.48;;;;;;;;;;5098686;28;20058;-83
2021/08/18 05:03:13;;;;;;;19.55;11.57;;;;;;;;;;5098637;28;20067;-84
2021/08/18 05:05:40;;;;;;;20.10;10.60;;;;;;;;;;5095720;28;20430;-83
2021/08/18 05:08:07;;;;;;;17.02;10.43;;;;;;;;;;5092745;28;20044;-83
2021/08/18 05:10:34;;;;;;;18.52;9.85;;;;;;;;;;5094566;28;20172;-83
2021/08/18 05:13:01;;;;;;;21.85;11.52;;;;;;;;;;5092679;28;20237;-84
2021/08/18 05:15:28;;;;;;;18.73;10.30;;;;;;;;;;5096714;28;20072;-84
2021/08/18 05:17:55;;;;;;;16.63;9.27;;;;;;;;;;5110684;28;20112;-81
2021/08/18 05:20:21;;;;;;;23.90;10.52;;;;;;;;;;5107132;28;20048;-83
2021/08/18 05:22:48;;;;;;;19.80;10.35;;;;;;;;;;5094464;28;20392;-84
2021/08/18 05:25:17;;;;;;;18.63;9.40;;;;;;;;;;5094411;28;20353;-83
2021/08/18 05:27:43;;;;;;;17.95;8.23;;;;;;;;;;5093747;28;20054;-84
2021/08/18 05:30:11;;;;;;;14.40;8.32;;;;;;;;;;5092884;28;20048;-83
2021/08/18 05:32:38;;;;;;;14.48;8.40;;;;;;;;;;5092089;28;20218;-83
2021/08/18 05:35:06;;;;;;;14.20;8.85;;;;;;;;;;5095359;28;20188;-83
2021/08/18 05:37:32;;;;;;;17.50;9.02;;;;;;;;;;5096403;28;20047;-83
2021/08/18 05:39:59;;;;;;;16.80;9.60;;;;;;;;;;5095877;28;20056;-83
2021/08/18 05:42:26;;;;;;;17.90;9.13;;;;;;;;;;5108539;28;20056;-82
2021/08/18 05:44:52;;;;;;;16.63;8.63;;;;;;;;;;5109041;28;20091;-83
2021/08/18 05:47:21;;;;;;;17.38;8.30;;;;;;;;;;5108409;28;20193;-82
2021/08/18 05:49:57;;;;;;;19.00;9.95;;;;;;;;;;5109920;28;20056;-83
2021/08/18 05:52:24;;;;;;;;;;;;;;;;;;5111968;28;20040;-82
2021/08/18 05:54:50;;;;;;;20.38;9.20;;;;;;;;;;5103443;28;19927;-82
2021/08/18 05:57:17;;;;;;;15.48;8.98;;;;;;;;;;5101489;28;20044;-82
2021/08/18 05:59:43;;;;;;;16.52;8.70;;;;;;;;;;5101901;28;20032;-83
2021/08/18 06:02:10;;;;;;;22.52;7.80;;;;;;;;;;5108537;28;20066;-82
2021/08/18 06:04:37;;;;;;;13.18;7.72;;;;;;;;;;5100359;28;20054;-83
2021/08/18 06:07:04;;;;;;;12.38;7.40;;;;;;;;;;5095141;28;20063;-83
2021/08/18 06:09:32;;;;;;;13.98;8.48;;;;;;;;;;5095219;28;20055;-83
2021/08/18 06:11:59;;;;;;;16.40;7.47;;;;;;;;;;5102554;28;20036;-83
2021/08/18 06:14:25;;;;;;;11.85;7.18;;;;;;;;;;5109364;28;20064;-83
2021/08/18 06:16:52;;;;;;;12.40;7.32;;;;;;;;;;5107231;28;20046;-83
2021/08/18 06:19:19;;;;;;;13.68;7.60;;;;;;;;;;5108104;28;20048;-82
2021/08/18 06:21:45;;;;;;;14.90;6.80;;;;;;;;;;5101947;28;20093;-83
2021/08/18 06:24:26;;;;;;;14.38;7.15;;;;;;;;;;5126280;27;20048;-83
2021/08/18 06:26:53;;;;;;;9.23;6.00;;;;;;;;;;5091600;28;20048;-83
2021/08/18 06:29:21;;;;;;;11.63;6.93;;;;;;;;;;5086670;28;20076;-80
2021/08/18 06:31:52;;;;;;;13.55;6.20;;;;;;;;;;5074745;28;20056;-81
2021/08/18 06:34:19;;;;;;;14.32;6.63;;;;;;;;;;5070971;28;20367;-81
2021/08/18 06:36:46;;;;;;;14.18;7.55;;;;;;;;;;5094203;28;20062;-82
2021/08/18 06:39:32;;;;;;;17.05;6.68;;;;;;;;;;5102741;28;20236;-82
2021/08/18 06:41:59;;;;;;;9.68;5.93;;;;;;;;;;5128049;27;20067;-83
2021/08/18 06:44:27;;;;;;;14.65;5.90;;;;;;;;;;5089317;28;20044;-83
2021/08/18 06:46:54;;;;;;;13.07;5.75;;;;;;;;;;5090445;28;20466;-81
2021/08/18 06:49:20;;;;;;;11.77;5.90;;;;;;;;;;5085223;28;20091;-81
2021/08/18 06:51:47;;;;;;;10.02;5.13;;;;;;;;;;5069555;28;20044;-81
2021/08/18 06:54:16;;;;;;;11.48;5.47;;;;;;;;;;5070985;28;20049;-81
2021/08/18 06:56:43;;;;;;;8.35;5.00;;;;;;;;;;5069778;28;20048;-81
2021/08/18 06:59:10;;;;;;;9.02;5.20;;;;;;;;;;5071118;28;20321;-81
2021/08/18 07:01:37;;;;;;;9.18;4.28;;;;;;;;;;5066011;28;20049;-81
2021/08/18 07:04:05;;;;;;;13.40;4.60;;;;;;;;;;5068838;28;20122;-82
2021/08/18 07:06:32;;;;;;;8.93;4.03;;;;;;;;;;5068018;28;20316;-82
2021/08/18 07:09:00;;;;;;;9.25;4.47;;;;;;;;;;5074427;28;20072;-82
2021/08/18 07:11:27;;;;;;;6.57;4.05;;;;;;;;;;5088176;28;20044;-82
2021/08/18 07:13:59;;;;;;;8.88;4.38;;;;;;;;;;5092651;28;20052;-82
2021/08/18 07:16:30;;;;;;;8.02;4.80;;;;;;;;;;5089666;28;20051;-82
2021/08/18 07:19:02;;;;;;;9.02;4.90;;;;;;;;;;5091076;28;20158;-81
2021/08/18 07:21:29;;;;;;;12.70;4.15;;;;;;;;;;5092369;28;20154;-82
2021/08/18 07:23:56;;;;;;;8.73;4.45;;;;;;;;;;5086961;28;20236;-81
2021/08/18 07:26:27;;;;;;;7.32;4.13;;;;;;;;;;5089852;28;20040;-82
2021/08/18 07:28:54;;;;;;;12.68;4.10;;;;;;;;;;5090572;28;20052;-82
2021/08/18 07:31:21;;;;;;;8.65;3.92;;;;;;;;;;5087164;28;20048;-82
2021/08/18 07:33:48;;;;;;;7.60;4.32;;;;;;;;;;5085677;28;20072;-82
2021/08/18 07:36:14;;;;;;;5.97;3.53;;;;;;;;;;5087483;28;20373;-82
2021/08/18 07:38:41;;;;;;;7.30;3.88;;;;;;;;;;5089109;28;20051;-82
2021/08/18 07:41:08;;;;;;;10.27;3.75;;;;;;;;;;5087718;28;20111;-83
2021/08/18 07:43:34;;;;;;;7.35;3.58;;;;;;;;;;5066726;28;20177;-81
2021/08/18 07:46:01;;;;;;;10.35;4.20;;;;;;;;;;5071281;28;20140;-82
2021/08/18 07:48:31;;;;;;;11.63;3.67;;;;;;;;;;5066384;28;20060;-82
2021/08/18 07:50:58;;;;;;;6.53;3.35;;;;;;;;;;5083826;28;20062;-82
2021/08/18 07:53:25;;;;;;;6.13;3.85;;;;;;;;;;5088627;28;20112;-82
2021/08/18 07:55:52;;;;;;;7.63;3.67;;;;;;;;;;5090956;28;20215;-83
2021/08/18 07:58:28;;;;;;;8.18;4.05;;;;;;;;;;5093977;28;20166;-82
2021/08/18 08:00:54;;;;;;;6.78;3.08;;;;;;;;;;5090267;28;20101;-83
2021/08/18 08:03:21;;;;;;;9.48;3.45;;;;;;;;;;5091049;28;20101;-83
2021/08/18 08:05:50;;;;;;;8.35;3.80;;;;;;;;;;5092608;28;20427;-82
2021/08/18 08:08:17;;;;;;;5.03;2.85;;;;;;;;;;5095602;28;20268;-84
2021/08/18 08:10:46;;;;;;;7.10;3.30;;;;;;;;;;5089813;28;20161;-83
2021/08/18 08:13:13;;;;;;;8.43;3.78;;;;;;;;;;5092004;28;20424;-82
2021/08/18 08:15:41;;;;;;;6.10;3.17;;;;;;;;;;5094714;28;20321;-83
2021/08/18 08:18:09;;;;;;;8.90;3.50;;;;;;;;;;5096299;28;20449;-82
2021/08/18 08:20:39;;;;;;;9.57;2.83;;;;;;;;;;5093126;28;20291;-83
2021/08/18 08:23:06;;;;;;;9.40;3.38;;;;;;;;;;5093396;28;20382;-83
2021/08/18 08:25:33;;;;;;;3.55;2.78;;;;;;;;;;5091411;28;20098;-83
2021/08/18 08:28:03;;;;;;;7.65;3.35;;;;;;;;;;5084449;28;20211;-83
2021/08/18 08:30:30;;;;;;;4.03;2.50;;;;;;;;;;5095517;28;20056;-84
2021/08/18 08:32:57;;;;;;;3.85;2.47;;;;;;;;;;5102771;28;20047;-82
2021/08/18 08:35:24;;;;;;;6.30;2.75;;;;;;;;;;5104832;28;20074;-83
2021/08/18 08:37:54;;;;;;;4.13;2.85;;;;;;;;;;5098274;28;20048;-84
2021/08/18 08:40:23;;;;;;;8.82;3.33;;;;;;;;;;5095154;28;20047;-84
2021/08/18 08:43:04;;;;;;;7.63;3.10;;;;;;;;;;5099695;28;20183;-84
2021/08/18 08:45:30;;;;;;;4.35;3.65;;;;;;;;;;5097906;28;20066;-84
2021/08/18 08:47:57;;;;;;;7.82;3.95;;;;;;;;;;5094884;28;20040;-84
2021/08/18 08:50:25;;;;;;;6.25;3.92;;;;;;;;;;5093934;28;20048;-83
2021/08/18 08:52:51;;;;;;;7.03;3.85;;;;;;;;;;5092468;28;20054;-82
2021/08/18 08:55:19;;;;;;;8.55;4.63;;;;;;;;;;5096338;28;20083;-83
2021/08/18 08:57:47;;;;;;;6.30;4.47;;;;;;;;;;5098927;28;20040;-83
2021/08/18 09:00:15;;;;;;;7.82;5.15;;;;;;;;;;5095731;28;20113;-82
2021/08/18 09:02:42;;;;;;;8.65;5.10;;;;;;;;;;5095649;28;20056;-84
2021/08/18 09:05:08;;;;;;;9.82;5.05;;;;;;;;;;5095067;28;20047;-84
2021/08/18 09:07:36;;;;;;;10.00;5.00;;;;;;;;;;5073568;28;20315;-85
2021/08/18 09:10:07;;;;;;;9.75;6.03;;;;;;;;;;5111284;28;20131;-84
2021/08/18 09:12:35;;;;;;;9.65;5.85;;;;;;;;;;5103906;28;20066;-85
2021/08/18 09:15:19;;;;;;;11.35;5.88;;;;;;;;;;5110007;28;20248;-83
2021/08/18 09:17:48;;;;;;;12.15;5.82;;;;;;;;;;5104000;28;20047;-84
2021/08/18 09:20:16;;;;;;;9.27;5.72;;;;;;;;;;5094791;28;20044;-84
2021/08/18 09:22:50;;;;;;;10.15;5.57;;;;;;;;;;5093173;28;20067;-84
2021/08/18 09:25:23;;;;;;;9.95;5.40;;;;;;;;;;5092758;28;20082;-82
2021/08/18 09:27:54;;;;;;;8.90;5.70;;;;;;;;;;5100114;28;20115;-83
2021/08/18 09:30:38;;;;;;;5.80;3.80;;;;;;;;;;5106857;28;20070;-84
2021/08/18 09:33:22;;;;;;;6.05;4.07;;;;;;;;;;5104017;28;20075;-83
2021/08/18 09:36:05;;;;;;;6.80;4.07;;;;;;;;;;5095144;28;20101;-84
2021/08/18 09:38:31;;;;;;;9.00;3.90;;;;;;;;;;5096382;28;20044;-82
2021/08/18 09:40:58;;;;;;;8.90;3.67;;;;;;;;;;5103168;28;20048;-82
2021/08/18 09:43:30;;;;;;;5.15;4.00;;;;;;;;;;5097530;28;20331;-82
2021/08/18 09:45:59;;;;;;;4.55;3.28;;;;;;;;;;5083896;28;20436;-83
2021/08/18 09:48:27;;;;;;;5.22;3.40;;;;;;;;;;5072797;28;20055;-81
2021/08/18 09:50:56;;;;;;;3.85;2.72;;;;;;;;;;5069484;28;20316;-83
2021/08/18 09:53:41;;;;;;;3.85;3.28;;;;;;;;;;5079525;28;20113;-82
2021/08/18 09:56:09;;;;;;;6.43;3.80;;;;;;;;;;5080081;28;20056;-83
2021/08/18 09:58:40;;;;;;;5.32;3.80;;;;;;;;;;5072240;28;20807;-83
2021/08/18 10:01:08;;;;;;;9.30;4.00;;;;;;;;;;5069175;28;20048;-81
2021/08/18 10:03:39;;;;;;;5.35;3.75;;;;;;;;;;5069609;28;20096;-82
2021/08/18 10:06:07;;;;;;;5.68;3.80;;;;;;;;;;5072265;28;20067;-83
2021/08/18 10:08:35;;;;;;;5.93;3.30;;;;;;;;;;5070444;28;20055;-82
2021/08/18 10:11:05;;;;;;;5.97;3.40;;;;;;;;;;5069789;28;20071;-82
2021/08/18 10:13:33;;;;;;;7.20;3.83;;;;;;;;;;5081867;28;20051;-82
2021/08/18 10:15:59;;;;;;;5.80;3.47;;;;;;;;;;5092539;28;20070;-82
2021/08/18 10:18:33;;;;;;;4.47;3.13;;;;;;;;;;5129653;27;20425;-82
2021/08/18 10:21:09;;;;;;;6.90;3.05;;;;;;;;;;5093048;28;20403;-82
2021/08/18 10:23:55;;;;;;;4.90;2.70;;;;;;;;;;5126119;27;20054;-81
2021/08/18 10:26:37;;;;;;;7.53;3.10;;;;;;;;;;5092246;28;20176;-81
2021/08/18 10:29:29;;;;;;;3.58;2.70;;;;;;;;;;5088996;28;20060;-81
2021/08/18 10:31:57;;;;;;;3.60;2.35;;;;;;;;;;5090373;28;20363;-84
2021/08/18 10:34:43;;;;;;;2.45;1.90;;;;;;;;;;5088025;28;20116;-83
2021/08/18 10:37:13;;;;;;;2.65;2.00;;;;;;;;;;5088166;28;20044;-82
2021/08/18 10:39:41;;;;;;;3.42;2.00;;;;;;;;;;5088906;28;20054;-83
2021/08/18 10:42:26;;;;;;;4.40;2.00;;;;;;;;;;5091164;28;20146;-83
2021/08/18 10:44:55;;;;;;;5.43;2.03;;;;;;;;;;5090109;28;20691;-83
2021/08/18 10:47:23;;;;;;;4.28;1.63;;;;;;;;;;5091246;28;20059;-82
2021/08/18 10:49:52;;;;;;;2.30;1.55;;;;;;;;;;5089159;28;20048;-83
2021/08/18 10:52:29;;;;;;;2.65;1.65;;;;;;;;;;5090512;28;20187;-83
2021/08/18 10:55:14;;;;;;;3.20;1.90;;;;;;;;;;5094412;28;20067;-82
2021/08/18 10:57:48;;;;;;;3.08;1.70;;;;;;;;;;5093636;28;20056;-85
2021/08/18 11:00:18;;;;;;;2.63;1.45;;;;;;;;;;5095343;28;20052;-83
2021/08/18 11:02:52;;;;;;;8.70;1.48;;;;;;;;;;5091955;28;20100;-84
2021/08/18 11:05:23;;;;;;;3.28;1.42;;;;;;;;;;5096163;28;20070;-85
2021/08/18 11:07:59;;;;;;;5.75;1.17;;;;;;;;;;5093680;28;20060;-84
2021/08/18 11:10:27;;;;;;;6.10;1.45;;;;;;;;;;5094262;28;20188;-84
2021/08/18 11:12:55;;;;;;;7.13;1.65;;;;;;;;;;5105491;28;20103;-83
2021/08/18 11:15:31;;;;;;;3.33;1.17;;;;;;;;;;5103705;28;20118;-85
2021/08/18 11:17:58;;;;;;;2.38;1.10;;;;;;;;;;5099698;28;20071;-84
2021/08/18 11:20:29;;;;;;;5.85;1.17;;;;;;;;;;5099115;28;20170;-84
2021/08/18 11:23:12;;;;;;;3.60;1.45;;;;;;;;;;5096207;28;20245;-83
2021/08/18 11:25:43;;;;;;;1.73;1.20;;;;;;;;;;5105582;28;20109;-84
2021/08/18 11:28:26;;;;;;;1.95;1.08;;;;;;;;;;5095362;28;20048;-84
2021/08/18 11:30:57;;;;;;;2.13;1.40;;;;;;;;;;5091206;28;20140;-83
2021/08/18 11:33:25;;;;;;;2.47;1.10;;;;;;;;;;5097631;28;20251;-85
2021/08/18 11:35:55;;;;;;;4.05;1.40;;;;;;;;;;5098300;28;20040;-84
2021/08/18 11:38:25;;;;;;;4.22;1.60;;;;;;;;;;5095207;28;20044;-84
2021/08/18 11:40:52;;;;;;;5.32;1.42;;;;;;;;;;5097767;28;20133;-84
2021/08/18 11:43:46;;;;;;;4.72;1.45;;;;;;;;;;5077509;28;20108;-84
2021/08/18 11:46:14;;;;;;;2.20;1.40;;;;;;;;;;5075647;28;20055;-84
2021/08/18 11:48:42;;;;;;;3.00;1.30;;;;;;;;;;5080836;28;20052;-84
2021/08/18 11:51:19;;;;;;;5.22;1.25;;;;;;;;;;5079517;28;20044;-84
2021/08/18 11:53:59;;;;;;;3.80;1.40;;;;;;;;;;5078063;28;20174;-84
2021/08/18 11:56:27;;;;;;;3.20;1.38;;;;;;;;;;5086125;28;20147;-85
2021/08/18 11:59:01;;;;;;;4.90;1.45;;;;;;;;;;5087606;28;20051;-83
2021/08/18 12:01:28;;;;;;;2.92;1.40;;;;;;;;;;5093634;28;20174;-83
2021/08/18 12:03:56;;;;;;;3.28;1.40;;;;;;;;;;5093047;28;20192;-84
2021/08/18 12:06:35;;;;;;;3.63;1.45;;;;;;;;;;5110546;28;20148;-83
2021/08/18 12:09:05;;;;;;;3.55;1.70;;;;;;;;;;5082818;28;20033;-82
2021/08/18 12:11:33;;;;;;;4.28;1.67;;;;;;;;;;5078937;28;20055;-83
2021/08/18 12:14:17;;;;;;;3.80;1.65;;;;;;;;;;5076868;28;20088;-84
2021/08/18 12:16:57;;;;;;;2.55;1.52;;;;;;;;;;5127495;27;20363;-84
2021/08/18 12:19:26;;;;;;;4.07;1.55;;;;;;;;;;5106629;28;20048;-84
2021/08/18 12:22:02;;;;;;;2.80;1.95;;;;;;;;;;5094606;28;20066;-83
2021/08/18 12:24:30;;;;;;;4.03;2.05;;;;;;;;;;5113011;28;20087;-85
2021/08/18 12:27:07;;;;;;;4.47;1.90;;;;;;;;;;5088192;28;20097;-84
2021/08/18 12:29:37;;;;;;;4.10;2.13;;;;;;;;;;5094382;28;20062;-85
2021/08/18 12:32:07;;;;;;;3.90;2.05;;;;;;;;;;5107426;28;20039;-84
2021/08/18 12:34:35;;;;;;;2.75;2.03;;;;;;;;;;5111035;28;20115;-85
2021/08/18 12:37:22;;;;;;;2.05;1.85;;;;;;;;;;5095182;28;20206;-85
2021/08/18 12:40:02;;;;;;;2.70;2.03;;;;;;;;;;5091385;28;20060;-85
2021/08/18 12:42:44;;;;;;;3.97;1.73;;;;;;;;;;5087257;28;20082;-85
2021/08/18 12:45:34;;;;;;;3.78;2.33;;;;;;;;;;5078170;28;20059;-84
2021/08/18 12:48:22;;;;;;;3.13;2.15;;;;;;;;;;5080588;28;20096;-87
2021/08/18 12:50:59;;;;;;;2.33;1.85;;;;;;;;;;5110993;28;20036;-85
2021/08/18 12:53:39;;;;;;;6.90;1.85;;;;;;;;;;5106161;28;20067;-84
2021/08/18 12:56:09;;;;;;;4.00;2.15;;;;;;;;;;5108466;28;20066;-84
2021/08/18 12:58:41;;;;;;;2.78;1.48;;;;;;;;;;5107130;28;20090;-84
2021/08/18 13:01:29;;;;;;;3.58;1.98;;;;;;;;;;5087353;28;20126;-84
2021/08/18 13:03:57;;;;;;;3.15;1.67;;;;;;;;;;5083669;28;20054;-85
2021/08/18 13:06:41;;;;;;;3.42;1.73;;;;;;;;;;5093539;28;20115;-84
2021/08/18 13:09:10;;;;;;;7.95;2.58;;;;;;;;;;5097893;28;20041;-84
2021/08/18 13:11:37;;;;;;;5.07;1.98;;;;;;;;;;5097655;28;20337;-85
2021/08/18 13:14:04;;;;;;;2.92;1.90;;;;;;;;;;5097576;28;20052;-85
2021/08/18 13:16:34;;;;;;;5.72;2.20;;;;;;;;;;5130051;27;20068;-85
2021/08/18 13:19:02;;;;;;;4.13;2.35;;;;;;;;;;5097808;28;20048;-86
2021/08/18 13:21:33;;;;;;;4.00;2.17;;;;;;;;;;5098993;28;20402;-86
2021/08/18 13:24:23;;;;;;;7.22;2.00;;;;;;;;;;5101640;28;20082;-88
2021/08/18 13:27:05;;;;;;;2.33;1.90;;;;;;;;;;5098025;28;20151;-85
2021/08/18 13:29:35;;;;;;;5.50;2.00;;;;;;;;;;5093070;28;20051;-85
2021/08/18 13:32:02;;;;;;;10.35;2.50;;;;;;;;;;5075685;28;20488;-85
2021/08/18 13:34:35;;;;;;;3.28;1.92;;;;;;;;;;5076026;28;20052;-86
2021/08/18 13:37:02;;;;;;;3.33;2.08;;;;;;;;;;5075024;28;20087;-85
2021/08/18 13:39:30;;;;;;;3.97;1.90;;;;;;;;;;5089199;28;20056;-85
2021/08/18 13:42:20;;;;;;;4.05;1.90;;;;;;;;;;5097520;28;20059;-84
2021/08/18 13:45:01;;;;;;;4.07;1.98;;;;;;;;;;5096922;28;20411;-84
2021/08/18 13:47:42;;;;;;;6.03;2.28;;;;;;;;;;5075723;28;20056;-86
2021/08/18 13:50:27;;;;;;;2.83;1.80;;;;;;;;;;5077065;28;20048;-87
2021/08/18 13:53:04;;;;;;;4.18;1.85;;;;;;;;;;5078632;28;20044;-86
2021/08/18 13:55:31;;;;;;;8.77;2.60;;;;;;;;;;5086543;28;20055;-85
2021/08/18 13:57:59;;;;;;;2.97;2.50;;;;;;;;;;5099982;28;20284;-86
2021/08/18 14:00:34;;;;;;;3.20;2.63;;;;;;;;;;5095934;28;20054;-87
2021/08/18 14:03:01;;;;;;;6.22;2.58;;;;;;;;;;5088745;28;20059;-84
2021/08/18 14:05:44;;;;;;;3.05;2.35;;;;;;;;;;5081554;28;20261;-84
2021/08/18 14:08:25;;;;;;;5.68;2.88;;;;;;;;;;5098410;28;20254;-85
2021/08/18 14:10:53;;;;;;;6.05;2.70;;;;;;;;;;5096204;28;20087;-85
2021/08/18 14:13:20;;;;;;;7.65;2.72;;;;;;;;;;5107822;28;20237;-85
2021/08/18 14:15:47;;;;;;;4.43;2.50;;;;;;;;;;5107007;28;20207;-85
2021/08/18 14:18:17;;;;;;;3.78;2.30;;;;;;;;;;5100802;28;20056;-84
2021/08/18 14:20:44;;;;;;;6.85;2.33;;;;;;;;;;5099926;28;20073;-85
2021/08/18 14:23:12;;;;;;;7.03;2.10;;;;;;;;;;5096164;28;20048;-85
2021/08/18 14:25:41;;;;;;;5.80;2.25;;;;;;;;;;5093928;28;20072;-84
2021/08/18 14:28:10;;;;;;;3.20;1.88;;;;;;;;;;5099148;28;20082;-84
2021/08/18 14:30:38;;;;;;;3.05;2.33;;;;;;;;;;5094302;28;20039;-84
2021/08/18 14:33:07;;;;;;;4.10;2.15;;;;;;;;;;5109815;28;20402;-84
2021/08/18 14:35:42;;;;;;;6.10;2.53;;;;;;;;;;5117919;28;20058;-84
2021/08/18 14:38:13;;;;;;;4.35;2.30;;;;;;;;;;5124221;28;20047;-87
2021/08/18 14:40:41;;;;;;;3.30;2.33;;;;;;;;;;5089577;28;20104;-86
2021/08/18 14:43:08;;;;;;;6.70;2.40;;;;;;;;;;5107396;28;20047;-87
2021/08/18 14:45:44;;;;;;;4.28;1.80;;;;;;;;;;5106494;28;20036;-86